Time;durP1;ratioP1;P1;durP2;ratioP2;P2;SDS_P1;SDS_P2;PMS_P1;PMS_P2;Temp;Humidity;BMP_temperature;BMP_pressure;BME280_temperature;BME280_humidity;BME280_pressure;Samples;Min_cycle;Max_cycle;Signal;HPM_P1;HPM_P2
2021/12/16 06:06:09;;;;;;;59.75;33.42;;;;;;;0.88;100.00;98905.25;1870907;76;28007;-61
2021/12/16 06:08:38;;;;;;;57.75;29.32;;;;;;;0.83;100.00;98904.23;1827144;77;21497;-60
2021/12/16 06:11:17;;;;;;;43.20;25.15;;;;;;;0.88;100.00;98905.25;1827653;78;21091;-62
2021/12/16 06:14:00;;;;;;;40.88;23.38;;;;;;;0.95;100.00;98904.73;1821944;78;20896;-60
2021/12/16 06:27:10;;;;;;;34.33;20.83;;;;;;;1.39;100.00;98903.46;1821720;78;20963;-57
2021/12/16 06:29:34;;;;;;;35.30;21.23;;;;;;;1.46;100.00;98905.28;1822510;78;21460;-60
2021/12/16 06:32:01;;;;;;;29.20;19.27;;;;;;;1.48;100.00;98903.23;1823491;78;21002;-63
2021/12/16 06:34:29;;;;;;;35.65;20.72;;;;;;;1.51;100.00;98897.55;1823464;78;20911;-60
2021/12/16 06:36:56;;;;;;;27.67;18.57;;;;;;;1.53;100.00;98895.50;1824741;78;21058;-60
2021/12/16 06:39:24;;;;;;;28.50;18.70;;;;;;;1.54;100.00;98894.46;1827316;78;20943;-60
2021/12/16 06:42:07;;;;;;;27.27;16.80;;;;;;;1.57;100.00;98898.02;1824729;78;21532;-60
2021/12/16 06:44:44;;;;;;;27.98;18.37;;;;;;;1.63;100.00;98895.84;1826025;78;20892;-57
2021/12/16 06:47:11;;;;;;;29.35;18.30;;;;;;;1.65;100.00;98895.92;1826962;78;20919;-59
2021/12/16 06:49:37;;;;;;;30.62;18.77;;;;;;;1.67;100.00;98894.41;1802122;78;20942;-63
2021/12/16 06:52:06;;;;;;;29.67;18.37;;;;;;;1.68;100.00;98885.45;1822509;78;20904;-57
2021/12/16 06:54:54;;;;;;;39.45;18.82;;;;;;;1.74;100.00;98889.91;1823694;78;20844;-61
2021/12/16 06:57:19;;;;;;;27.52;18.55;;;;;;;1.75;100.00;98887.05;1818740;78;20943;-57
2021/12/16 06:59:39;;;;;;;30.72;17.65;;;;;;;1.77;100.00;98886.81;1820143;78;20876;-60
2021/12/16 07:02:10;;;;;;;31.50;18.02;;;;;;;1.79;100.00;98900.65;1822042;78;21105;-57
2021/12/16 07:04:33;;;;;;;32.30;17.37;;;;;;;1.80;100.00;98893.01;1823082;78;20837;-61
2021/12/16 07:07:00;;;;;;;33.65;18.40;;;;;;;1.79;100.00;98888.23;1830394;77;20880;-63
2021/12/16 07:09:27;;;;;;;28.75;17.70;;;;;;;1.80;100.00;98892.50;1777917;80;20931;-61
2021/12/16 07:11:57;;;;;;;29.45;18.62;;;;;;;1.80;100.00;98887.22;1757484;81;21083;-58
2021/12/16 07:14:35;;;;;;;32.03;18.60;;;;;;;1.81;100.00;98891.50;1782821;80;21460;-59
2021/12/16 07:16:57;;;;;;;29.90;19.87;;;;;;;1.84;100.00;98887.59;1779658;80;21411;-56
2021/12/16 07:19:23;;;;;;;35.92;20.17;;;;;;;1.85;100.00;98887.91;1782053;80;20992;-59
2021/12/16 07:21:50;;;;;;;29.90;19.48;;;;;;;1.84;100.00;98884.95;1789769;79;20942;-60
2021/12/16 07:24:18;;;;;;;47.78;19.60;;;;;;;1.85;100.00;98883.94;1769630;80;20993;-59
2021/12/16 07:26:45;;;;;;;56.63;20.88;;;;;;;1.89;100.00;98889.09;1815486;78;21042;-61
2021/12/16 07:29:12;;;;;;;26.55;18.35;;;;;;;1.90;100.00;98884.93;1783602;80;21259;-59
2021/12/16 07:31:39;;;;;;;33.80;20.50;;;;;;;1.92;100.00;98879.42;1815830;79;21032;-59
2021/12/16 07:34:11;;;;;;;46.63;19.67;;;;;;;1.91;100.00;98877.79;1783416;80;21465;-62
2021/12/16 07:36:40;;;;;;;34.50;20.40;;;;;;;1.91;100.00;98881.25;1815499;79;20938;-62
2021/12/16 07:39:08;;;;;;;33.53;21.10;;;;;;;1.91;100.00;98886.53;1783659;80;21497;-62
2021/12/16 07:41:35;;;;;;;29.75;19.70;;;;;;;1.90;100.00;98886.76;1814687;78;21017;-63
2021/12/16 07:44:10;;;;;;;45.80;21.87;;;;;;;1.91;100.00;98887.03;1783412;80;21019;-63
2021/12/16 07:46:48;;;;;;;46.48;21.73;;;;;;;1.92;100.00;98888.16;1813970;79;20962;-64
2021/12/16 07:49:18;;;;;;;32.75;20.50;;;;;;;1.94;100.00;98886.63;1737087;81;21043;-62
2021/12/16 07:51:45;;;;;;;30.95;19.50;;;;;;;1.94;100.00;98891.40;1741762;81;21796;-61
2021/12/16 07:54:13;;;;;;;39.73;20.95;;;;;;;1.98;100.00;98886.48;1771768;80;20967;-59
2021/12/16 07:56:40;;;;;;;39.45;19.32;;;;;;;1.99;100.00;98883.64;1792373;80;20880;-59
2021/12/16 07:59:07;;;;;;;37.63;20.55;;;;;;;2.01;100.00;98887.39;1792772;79;20924;-59
2021/12/16 08:01:38;;;;;;;33.65;20.57;;;;;;;2.00;100.00;98885.78;1792414;80;20936;-60
2021/12/16 08:04:06;;;;;;;47.93;22.50;;;;;;;2.02;100.00;98890.34;1795730;77;21122;-59
2021/12/16 08:06:33;;;;;;;44.08;22.75;;;;;;;2.05;100.00;98888.56;1788818;79;20834;-58
2021/12/16 08:09:05;;;;;;;33.75;21.87;;;;;;;2.05;100.00;98892.53;1815894;79;20876;-62
2021/12/16 08:11:33;;;;;;;36.88;21.45;;;;;;;2.05;100.00;98892.53;1805818;78;21388;-62
2021/12/16 08:14:02;;;;;;;46.35;21.02;;;;;;;2.05;100.00;98891.21;1806833;79;21474;-67
2021/12/16 08:18:14;;;;;;;40.73;22.17;;;;;;;2.05;100.00;98895.17;1850684;76;27935;-65
2021/12/16 08:20:41;;;;;;;41.05;21.57;;;;;;;1.97;100.00;98891.48;1811967;78;20911;-64
2021/12/16 08:23:07;;;;;;;34.38;22.20;;;;;;;1.94;100.00;98894.05;1817284;78;21069;-59
2021/12/16 08:25:35;;;;;;;38.63;22.73;;;;;;;1.93;100.00;98888.45;1815057;78;21507;-62
2021/12/16 08:28:03;;;;;;;42.58;22.15;;;;;;;1.95;100.00;98886.93;1813428;78;20926;-65
2021/12/16 08:30:33;;;;;;;44.55;21.52;;;;;;;2.00;100.00;98887.11;1815835;78;20905;-59
2021/12/16 08:33:04;;;;;;;36.50;20.70;;;;;;;2.04;100.00;98885.64;1818138;78;21506;-58
2021/12/16 08:35:31;;;;;;;169.45;35.73;;;;;;;2.06;100.00;98880.95;1815674;78;21200;-58
2021/12/16 08:38:00;;;;;;;42.20;20.60;;;;;;;2.05;100.00;98881.96;1817376;78;20927;-60
2021/12/16 08:40:27;;;;;;;32.17;19.37;;;;;;;2.03;100.00;98881.37;1814220;78;20986;-58
2021/12/16 08:42:53;;;;;;;37.05;20.88;;;;;;;2.03;100.00;98880.05;1817583;78;21054;-61
2021/12/16 08:45:27;;;;;;;34.30;20.82;;;;;;;2.04;100.00;98877.22;1807001;78;20857;-62
2021/12/16 08:47:53;;;;;;;32.93;20.05;;;;;;;2.04;100.00;98874.57;1816527;78;21057;-59
2021/12/16 08:50:22;;;;;;;33.15;20.45;;;;;;;2.04;100.00;98877.22;1810621;78;20916;-59
2021/12/16 08:52:49;;;;;;;32.48;19.55;;;;;;;2.04;100.00;98873.75;1806386;78;20935;-59
2021/12/16 08:55:16;;;;;;;34.48;20.35;;;;;;;2.05;100.00;98867.42;1818360;78;20966;-61
2021/12/16 08:57:43;;;;;;;30.02;20.15;;;;;;;2.09;100.00;98862.03;1814010;78;20884;-61
2021/12/16 09:00:15;;;;;;;34.00;20.17;;;;;;;2.11;100.00;98859.98;1808245;78;21956;-59
2021/12/16 09:02:44;;;;;;;36.48;19.30;;;;;;;2.13;100.00;98860.57;1809693;78;20876;-60
2021/12/16 09:05:10;;;;;;;67.42;21.37;;;;;;;2.17;100.00;98860.97;1807736;78;21498;-56
2021/12/16 09:07:37;;;;;;;31.10;19.20;;;;;;;2.15;100.00;98861.16;1812753;78;20958;-60
2021/12/16 09:10:05;;;;;;;32.45;18.80;;;;;;;2.15;100.00;98859.84;1815189;78;20868;-60
2021/12/16 09:15:08;;;;;;;46.25;19.85;;;;;;;2.16;100.00;98855.37;1812098;78;20872;-58
2021/12/16 09:17:38;;;;;;;28.40;18.77;;;;;;;2.15;100.00;98847.95;1787097;78;20971;-57
2021/12/16 09:20:07;;;;;;;43.80;20.23;;;;;;;2.17;100.00;98840.61;1795564;79;21392;-56
2021/12/16 09:22:35;;;;;;;33.33;19.73;;;;;;;2.17;100.00;98837.97;1788131;80;20913;-61
2021/12/16 09:25:02;;;;;;;31.12;19.60;;;;;;;2.15;100.00;98839.20;1787720;79;21111;-57
2021/12/16 09:27:28;;;;;;;28.20;18.57;;;;;;;2.15;100.00;98841.34;1787122;79;20928;-58
2021/12/16 09:29:55;;;;;;;39.15;19.15;;;;;;;2.18;100.00;98827.70;1806710;79;20975;-59
2021/12/16 09:32:24;;;;;;;30.02;18.82;;;;;;;2.18;100.00;98825.56;1790541;79;21412;-59
2021/12/16 09:34:50;;;;;;;37.75;18.85;;;;;;;2.18;100.00;98823.73;1809390;79;20924;-59
2021/12/16 09:37:19;;;;;;;51.75;18.55;;;;;;;2.21;100.00;98822.49;1793532;79;21068;-61
2021/12/16 09:39:46;;;;;;;45.60;19.05;;;;;;;2.23;100.00;98823.08;1775829;80;21215;-59
2021/12/16 09:42:13;;;;;;;31.07;18.20;;;;;;;2.21;100.00;98818.02;1776918;80;21436;-60
2021/12/16 09:44:39;;;;;;;37.23;18.57;;;;;;;2.22;100.00;98820.95;1777234;80;20926;-60
2021/12/16 09:47:09;;;;;;;42.90;18.85;;;;;;;2.24;100.00;98818.11;1777234;80;21024;-58
2021/12/16 09:49:36;;;;;;;31.00;18.98;;;;;;;2.25;100.00;98817.88;1777427;80;21087;-61
2021/12/16 09:52:05;;;;;;;32.10;18.23;;;;;;;2.27;100.00;98814.50;1777639;80;20894;-59
2021/12/16 09:54:32;;;;;;;33.00;18.52;;;;;;;2.27;100.00;98811.86;1777330;80;21011;-57
2021/12/16 09:56:59;;;;;;;56.85;21.00;;;;;;;2.25;100.00;98816.55;1777297;80;20966;-58
2021/12/16 09:59:28;;;;;;;37.98;18.50;;;;;;;2.25;100.00;98816.55;1776939;80;21051;-57
2021/12/16 10:01:58;;;;;;;30.52;18.77;;;;;;;2.25;100.00;98811.27;1776823;80;21681;-59
2021/12/16 10:04:31;;;;;;;33.20;18.92;;;;;;;2.28;100.00;98812.67;1776863;80;20950;-64
2021/12/16 10:06:56;;;;;;;35.68;19.32;;;;;;;2.29;100.00;98800.55;1775948;80;21110;-59
2021/12/16 10:09:23;;;;;;;43.08;18.32;;;;;;;2.29;100.00;98801.05;1776991;80;20930;-60
2021/12/16 10:11:53;;;;;;;33.63;18.87;;;;;;;2.31;100.00;98802.99;1777541;80;20894;-64
2021/12/16 10:15:08;;;;;;;46.50;20.00;;;;;;;2.32;100.00;98794.83;1777315;80;21079;-66
2021/12/16 10:20:01;;;;;;;32.15;17.98;;;;;;;2.40;100.00;98803.00;1777449;80;26334;-61
2021/12/16 10:22:36;;;;;;;30.88;19.12;;;;;;;2.40;100.00;98805.11;1754846;81;20900;-61
2021/12/16 10:25:26;;;;;;;73.65;20.62;;;;;;;2.41;100.00;98795.34;1755181;81;21007;-58
2021/12/16 10:28:04;;;;;;;53.08;18.73;;;;;;;2.46;100.00;98800.80;1754824;81;21096;-63
2021/12/16 10:31:06;;;;;;;27.27;18.65;;;;;;;2.50;100.00;98797.49;1754868;81;21022;-59
2021/12/16 10:33:47;;;;;;;37.73;20.92;;;;;;;2.54;100.00;98797.34;1755097;81;21366;-60
2021/12/16 10:36:30;;;;;;;46.48;20.17;;;;;;;2.57;100.00;98783.69;1753107;81;20939;-59
2021/12/16 10:39:02;;;;;;;29.87;19.85;;;;;;;2.61;100.00;98786.72;1755054;81;20927;-57
2021/12/16 10:41:45;;;;;;;32.25;17.52;;;;;;;2.60;100.00;98778.48;1755295;81;21095;-58
2021/12/16 10:44:21;;;;;;;26.35;17.57;;;;;;;2.59;100.00;98771.59;1754919;81;21455;-59
2021/12/16 10:47:01;;;;;;;40.63;17.27;;;;;;;2.54;100.00;98764.28;1755172;81;21454;-59
2021/12/16 10:49:28;;;;;;;27.90;15.98;;;;;;;2.54;100.00;98761.64;1754100;81;20892;-59
2021/12/16 10:52:01;;;;;;;27.15;15.90;;;;;;;2.54;100.00;98753.70;1755218;81;21497;-61
2021/12/16 10:54:34;;;;;;;25.52;16.40;;;;;;;2.54;100.00;98752.92;1754205;81;21094;-58
2021/12/16 10:57:09;;;;;;;25.70;16.35;;;;;;;2.55;100.00;98745.27;1754779;81;20971;-58
2021/12/16 10:59:48;;;;;;;29.85;15.55;;;;;;;2.58;100.00;98742.19;1755185;81;21267;-59
2021/12/16 11:02:26;;;;;;;22.22;14.95;;;;;;;2.59;100.00;98737.98;1754747;81;20940;-62
2021/12/16 11:05:14;;;;;;;19.25;13.53;;;;;;;2.60;100.00;98727.72;1754961;81;20927;-59
2021/12/16 11:07:54;;;;;;;29.67;15.32;;;;;;;2.64;100.00;98732.03;1754915;81;21497;-60
2021/12/16 11:10:27;;;;;;;22.02;15.23;;;;;;;2.62;100.00;98724.33;1708370;82;21099;-63
2021/12/16 11:13:07;;;;;;;24.77;15.25;;;;;;;2.63;100.00;98721.17;1712096;83;20904;-59
2021/12/16 11:15:41;;;;;;;24.40;15.30;;;;;;;2.61;100.00;98722.73;1697597;84;20968;-66
2021/12/16 11:18:14;;;;;;;27.60;15.72;;;;;;;2.61;100.00;98728.02;1697483;84;20903;-59
2021/12/16 11:20:52;;;;;;;24.05;15.88;;;;;;;2.64;100.00;98720.95;1694049;84;21110;-63
2021/12/16 11:23:22;;;;;;;25.92;22.35;;;;;;;2.67;100.00;98719.70;1681451;85;21099;-63
2021/12/16 11:26:09;;;;;;;27.02;16.25;;;;;;;2.66;100.00;98725.49;1682256;85;21038;-61
2021/12/16 11:28:40;;;;;;;32.73;15.80;;;;;;;2.67;100.00;98717.87;1684442;83;21022;-61
2021/12/16 11:31:18;;;;;;;27.73;17.02;;;;;;;2.66;100.00;98716.23;1706618;83;20921;-59
2021/12/16 11:33:54;;;;;;;39.92;16.02;;;;;;;2.72;100.00;98715.37;1704978;84;21220;-65
2021/12/16 11:36:26;;;;;;;37.30;16.20;;;;;;;2.76;100.00;98713.88;1710609;84;21526;-60
2021/12/16 11:39:15;;;;;;;90.72;32.00;;;;;;;2.77;100.00;98718.66;1711398;83;21483;-61
2021/12/16 11:47:19;;;;;;;27.85;16.67;;;;;;;2.75;100.00;98704.34;1707896;84;21126;-62
2021/12/16 11:49:53;;;;;;;25.62;16.40;;;;;;;2.78;100.00;98702.56;1668962;85;20905;-64
2021/12/16 11:52:28;;;;;;;27.22;15.45;;;;;;;2.80;100.00;98702.36;1703938;84;21450;-61
2021/12/16 11:55:11;;;;;;;21.42;15.00;;;;;;;2.82;100.00;98708.73;1733292;82;20994;-61
2021/12/16 11:57:42;;;;;;;26.25;15.23;;;;;;;2.79;100.00;98712.63;1735865;82;20919;-63
2021/12/16 12:00:17;;;;;;;29.67;16.17;;;;;;;2.80;100.00;98713.45;1726987;82;21135;-62
2021/12/16 12:02:53;;;;;;;22.93;14.80;;;;;;;2.78;100.00;98716.83;1731665;82;20896;-63
2021/12/16 12:05:31;;;;;;;23.25;14.68;;;;;;;2.80;100.00;98717.41;1731740;82;20828;-62
2021/12/16 12:08:08;;;;;;;27.48;15.08;;;;;;;2.80;100.00;98714.77;1732449;82;21016;-62
2021/12/16 12:10:43;;;;;;;26.48;16.07;;;;;;;2.78;100.00;98711.55;1729728;82;20913;-61
2021/12/16 12:13:12;;;;;;;;;;;;;;;2.78;100.00;98705.71;1742466;82;21400;-60
2021/12/16 12:16:03;;;;;;;25.43;15.50;;;;;;;2.75;100.00;98703.53;1742655;81;20102;-60
2021/12/16 12:18:37;;;;;;;23.85;14.03;;;;;;;2.75;100.00;98699.56;1726117;82;21026;-63
2021/12/16 12:21:42;;;;;;;27.42;16.32;;;;;;;2.73;100.00;98704.28;1734345;81;20979;-64
2021/12/16 12:24:16;;;;;;;25.48;15.50;;;;;;;2.70;100.00;98696.27;1734660;82;20857;-64
2021/12/16 12:26:54;;;;;;;22.10;14.18;;;;;;;2.72;100.00;98694.71;1740833;82;20968;-60
2021/12/16 12:29:28;;;;;;;21.00;14.25;;;;;;;2.74;100.00;98689.49;1732730;81;20916;-63
2021/12/16 12:32:15;;;;;;;21.57;14.60;;;;;;;2.75;100.00;98687.66;1727254;81;20896;-65
2021/12/16 12:34:47;;;;;;;19.45;12.47;;;;;;;2.76;100.00;98680.81;1740896;81;20998;-60
2021/12/16 12:37:15;;;;;;;16.00;12.47;;;;;;;2.76;100.00;98686.61;1732177;82;20939;-60
2021/12/16 12:39:47;;;;;;;20.72;12.18;;;;;;;2.76;100.00;98684.78;1731098;82;21297;-62
2021/12/16 12:42:15;;;;;;;45.95;14.28;;;;;;;2.78;100.00;98687.73;1736140;82;20962;-65
2021/12/16 12:44:42;;;;;;;24.27;14.47;;;;;;;2.78;100.00;98684.03;1734527;82;21066;-62
2021/12/16 12:47:14;;;;;;;23.98;14.18;;;;;;;2.81;100.00;98681.47;1750051;82;20976;-62
2021/12/16 12:49:41;;;;;;;24.35;14.55;;;;;;;2.83;100.00;98679.40;1729898;82;20912;-64
2021/12/16 12:52:13;;;;;;;31.20;14.35;;;;;;;2.86;100.00;98682.11;1737690;82;21701;-61
2021/12/16 12:54:43;;;;;;;21.77;14.25;;;;;;;2.84;100.00;98690.28;1736210;82;20922;-61
2021/12/16 12:57:26;;;;;;;24.55;14.85;;;;;;;2.85;100.00;98688.45;1732877;82;20915;-65
2021/12/16 12:59:53;;;;;;;31.57;15.65;;;;;;;2.83;100.00;98696.59;1726814;82;21494;-61
2021/12/16 13:02:29;;;;;;;29.75;14.78;;;;;;;2.85;100.00;98697.72;1735134;82;20968;-61
2021/12/16 13:04:59;;;;;;;24.63;14.43;;;;;;;2.88;100.00;98701.22;1735057;82;21695;-61
2021/12/16 13:07:40;;;;;;;39.75;14.78;;;;;;;2.89;100.00;98710.27;1744519;80;20916;-59
2021/12/16 13:10:17;;;;;;;33.58;16.00;;;;;;;2.90;100.00;98701.83;1743378;82;20932;-59
2021/12/16 13:13:26;;;;;;;24.63;15.00;;;;;;;2.87;100.00;98703.59;1746907;81;20979;-58
2021/12/16 13:15:35;;;;;;;;;;;;;;;2.87;100.00;98707.55;1739225;82;21316;-59
2021/12/16 13:24:10;;;;;;;216.17;41.08;;;;;;;2.92;100.00;98699.76;1743674;81;21026;-59
2021/12/16 13:26:34;;;;;;;31.37;15.35;;;;;;;2.92;100.00;98698.44;1743138;81;21146;-56
2021/12/16 13:29:26;;;;;;;30.92;15.68;;;;;;;2.90;100.00;98693.89;1700686;81;21028;-58
2021/12/16 13:32:20;;;;;;;30.92;15.70;;;;;;;2.86;100.00;98692.19;1744940;81;21117;-63
2021/12/16 13:34:56;;;;;;;32.83;15.15;;;;;;;2.82;100.00;98694.19;1745253;81;20928;-61
2021/12/16 13:37:33;;;;;;;23.57;15.53;;;;;;;2.76;100.00;98686.61;1742321;81;21126;-63
2021/12/16 13:40:32;;;;;;;24.27;15.18;;;;;;;2.74;100.00;98684.20;1738384;81;20892;-58
2021/12/16 13:43:11;;;;;;;28.02;18.40;;;;;;;2.76;100.00;98676.84;1738361;81;21400;-60
2021/12/16 13:45:49;;;;;;;23.40;16.02;;;;;;;2.76;100.00;98678.17;1734521;81;21134;-66
2021/12/16 13:48:45;;;;;;;22.58;15.65;;;;;;;2.78;100.00;98667.89;1747224;81;20968;-64
2021/12/16 14:01:07;;;;;;;20.40;14.10;;;;;;;2.90;100.00;98663.45;1736700;81;21130;-61
2021/12/16 14:05:18;;;;;;;21.93;14.58;;;;;;;2.82;100.00;98640.76;1736359;81;20860;-60
2021/12/16 14:07:59;;;;;;;24.02;15.38;;;;;;;2.82;100.00;98641.27;1732882;81;21512;-61
2021/12/16 14:10:56;;;;;;;19.95;13.22;;;;;;;2.83;100.00;98638.92;1738396;81;21083;-62
2021/12/16 14:16:33;;;;;;;20.95;13.35;;;;;;;2.82;100.00;98645.23;1735178;81;21405;-63
2021/12/16 14:46:49;;;;;;;27.98;16.17;;;;;;;2.71;100.00;98631.73;1727150;83;20976;-58
2021/12/16 14:49:11;;;;;;;23.02;15.43;;;;;;;2.70;100.00;98631.45;1726646;83;21044;-59
2021/12/16 14:51:38;;;;;;;24.67;15.18;;;;;;;2.71;100.00;98621.16;1727252;83;20987;-62
2021/12/16 14:54:07;;;;;;;23.45;15.78;;;;;;;2.76;100.00;98618.64;1727445;83;21502;-61
2021/12/16 14:56:38;;;;;;;27.00;15.88;;;;;;;2.78;100.00;98621.87;1750468;81;20932;-63
2021/12/16 14:59:09;;;;;;;22.13;15.88;;;;;;;2.79;100.00;98613.42;1744442;81;20920;-61
2021/12/16 15:01:39;;;;;;;20.92;15.20;;;;;;;2.82;100.00;98621.42;1755997;80;20896;-62
2021/12/16 15:04:08;;;;;;;35.23;16.20;;;;;;;2.80;100.00;98638.05;1758186;81;21423;-60
2021/12/16 15:06:45;;;;;;;33.78;17.12;;;;;;;2.74;100.00;98635.27;1757878;81;21095;-60
2021/12/16 15:09:14;;;;;;;24.90;16.30;;;;;;;2.72;100.00;98642.62;1757169;81;21450;-60
2021/12/16 15:11:55;;;;;;;26.52;16.80;;;;;;;2.71;100.00;98637.02;1757941;81;20919;-61
2021/12/16 15:14:39;;;;;;;27.07;16.93;;;;;;;2.69;100.00;98636.45;1743622;81;20995;-59
2021/12/16 15:16:58;;;;;;;52.27;16.73;;;;;;;2.70;100.00;98638.58;1734201;80;21443;-59
2021/12/16 15:39:41;;;;;;;33.40;18.80;;;;;;;2.68;100.00;98634.84;1751856;82;21407;-57
2021/12/16 15:44:28;;;;;;;24.32;17.57;;;;;;;2.70;100.00;98651.81;1752298;82;21050;-59
2021/12/16 15:46:56;;;;;;;37.35;17.60;;;;;;;2.70;100.00;98653.94;1752273;82;21837;-60
2021/12/16 15:49:23;;;;;;;26.45;18.00;;;;;;;2.72;100.00;98674.87;1751902;82;21489;-58
2021/12/16 15:51:52;;;;;;;25.62;17.10;;;;;;;2.76;100.00;98654.87;1752411;82;20892;-58
2021/12/16 15:54:19;;;;;;;29.23;18.00;;;;;;;2.76;100.00;98660.97;1752232;82;20896;-57
2021/12/16 15:56:48;;;;;;;47.38;19.50;;;;;;;2.80;100.00;98644.66;1752314;82;21421;-60
2021/12/16 15:59:17;;;;;;;36.25;19.90;;;;;;;2.82;100.00;98653.17;1752149;82;21082;-61
2021/12/16 16:01:50;;;;;;;29.55;18.25;;;;;;;2.85;100.00;98652.73;1752112;82;21015;-63
2021/12/16 16:04:20;;;;;;;23.85;16.15;;;;;;;2.83;100.00;98655.59;1752073;82;20883;-60
2021/12/16 16:06:53;;;;;;;48.65;17.67;;;;;;;2.82;100.00;98655.31;1752105;82;20903;-58
2021/12/16 16:09:20;;;;;;;48.68;18.80;;;;;;;2.84;100.00;98665.66;1752113;82;20935;-59
2021/12/16 16:11:51;;;;;;;38.23;17.55;;;;;;;2.85;100.00;98655.38;1752073;82;21035;-58
2021/12/16 16:14:18;;;;;;;57.43;17.07;;;;;;;2.84;100.00;98668.30;1752278;82;21407;-59
2021/12/16 16:16:50;;;;;;;33.48;16.57;;;;;;;2.84;100.00;98650.59;1752128;82;21534;-61
2021/12/16 16:19:28;;;;;;;37.90;17.50;;;;;;;2.83;100.00;98654.80;1752016;82;20891;-61
2021/12/16 16:21:56;;;;;;;27.07;16.25;;;;;;;2.82;100.00;98652.66;1751040;82;20982;-57
2021/12/16 16:24:33;;;;;;;21.62;15.05;;;;;;;2.81;100.00;98651.55;1737261;82;21109;-60
2021/12/16 16:27:03;;;;;;;41.00;15.90;;;;;;;2.82;100.00;98646.56;1737388;82;20909;-57
2021/12/16 16:29:32;;;;;;;34.03;16.82;;;;;;;2.80;100.00;98655.24;1737338;82;20861;-58
2021/12/16 16:31:59;;;;;;;22.35;15.88;;;;;;;2.78;100.00;98644.08;1737138;82;20920;-59
2021/12/16 16:34:41;;;;;;;25.25;13.93;;;;;;;2.76;100.00;98636.34;1737369;82;21061;-62
2021/12/16 16:37:08;;;;;;;18.32;15.30;;;;;;;2.80;100.00;98642.02;1736836;82;21122;-62
2021/12/16 16:39:44;;;;;;;31.35;14.90;;;;;;;2.81;100.00;98644.42;1737173;82;21458;-57
2021/12/16 16:42:13;;;;;;;21.40;14.43;;;;;;;2.79;100.00;98645.17;1737615;82;20917;-58
2021/12/16 16:44:43;;;;;;;19.05;14.28;;;;;;;2.80;100.00;98642.02;1737662;82;21400;-61
2021/12/16 16:47:15;;;;;;;31.48;16.80;;;;;;;2.80;100.00;98637.53;1737698;82;20892;-60
2021/12/16 16:49:48;;;;;;;22.40;14.58;;;;;;;2.81;100.00;98642.28;1738151;82;21081;-60
2021/12/16 16:52:22;;;;;;;20.75;14.95;;;;;;;2.81;100.00;98635.67;1737372;82;20964;-61
2021/12/16 16:55:17;;;;;;;17.17;14.45;;;;;;;2.81;100.00;98633.84;1737556;82;20928;-58
2021/12/16 16:57:51;;;;;;;16.77;13.20;;;;;;;2.82;100.00;98642.59;1737585;82;21476;-58
2021/12/16 17:00:31;;;;;;;18.82;12.68;;;;;;;2.79;100.00;98639.88;1737698;82;20937;-60
2021/12/16 17:03:01;;;;;;;15.45;11.97;;;;;;;2.84;100.00;98631.27;1737700;82;21113;-58
2021/12/16 17:05:37;;;;;;;17.90;12.25;;;;;;;2.88;100.00;98636.39;1737579;82;20885;-60
2021/12/16 17:08:24;;;;;;;16.73;11.90;;;;;;;2.91;100.00;98635.95;1730307;82;20980;-58
2021/12/16 17:11:00;;;;;;;15.55;12.18;;;;;;;2.92;100.00;98632.28;1737418;82;20948;-60
2021/12/16 17:13:40;;;;;;;19.37;12.10;;;;;;;2.91;100.00;98633.30;1737446;82;20901;-62
2021/12/16 17:18:41;;;;;;;15.10;12.07;;;;;;;2.97;100.00;98628.45;1737309;82;20932;-59
2021/12/16 17:21:28;;;;;;;14.65;10.50;;;;;;;2.99;100.00;98632.99;1737250;82;20920;-59
2021/12/16 17:24:06;;;;;;;15.20;10.53;;;;;;;2.98;100.00;98637.98;1748528;82;20967;-62
2021/12/16 17:26:37;;;;;;;26.93;11.03;;;;;;;2.95;100.00;98633.12;1751719;81;20935;-57
2021/12/16 17:29:18;;;;;;;12.40;10.78;;;;;;;2.93;100.00;98637.84;1715265;83;21129;-58
2021/12/16 17:31:59;;;;;;;14.83;9.78;;;;;;;2.92;100.00;98632.28;1716005;83;21511;-62
2021/12/16 17:34:41;;;;;;;16.75;9.93;;;;;;;2.93;100.00;98629.91;1721335;83;20983;-61
2021/12/16 17:37:23;;;;;;;12.45;9.15;;;;;;;2.93;100.00;98626.75;1687550;85;20873;-61
2021/12/16 17:40:02;;;;;;;12.45;9.30;;;;;;;2.94;100.00;98618.30;1720429;83;21408;-59
2021/12/16 17:42:51;;;;;;;9.50;7.97;;;;;;;2.95;100.00;98623.88;1721543;83;21404;-58
2021/12/16 17:45:29;;;;;;;13.93;8.68;;;;;;;2.95;100.00;98622.03;1721276;83;20956;-59
2021/12/16 17:48:00;;;;;;;10.48;7.55;;;;;;;2.97;100.00;98624.47;1752292;82;20896;-59
2021/12/16 17:50:31;;;;;;;14.00;11.15;;;;;;;2.98;100.00;98630.05;1752304;82;20932;-62
2021/12/16 17:52:58;;;;;;;10.18;8.05;;;;;;;2.97;100.00;98616.00;1750837;81;20880;-59
2021/12/16 17:55:36;;;;;;;10.55;8.25;;;;;;;2.98;100.00;98621.59;1752249;82;21082;-61
2021/12/16 17:58:10;;;;;;;10.68;7.47;;;;;;;3.01;100.00;98625.62;1752452;82;20936;-61
2021/12/16 18:00:51;;;;;;;10.03;8.00;;;;;;;3.01;100.00;98626.44;1752318;82;20927;-63
2021/12/16 18:03:24;;;;;;;11.68;9.05;;;;;;;3.01;100.00;98626.95;1752819;82;20935;-59
2021/12/16 18:05:57;;;;;;;12.80;9.75;;;;;;;3.01;100.00;98594.69;1752383;82;20955;-59
2021/12/16 18:08:35;;;;;;;11.05;8.93;;;;;;;3.04;100.00;98593.42;1752426;82;21096;-64
2021/12/16 18:11:08;;;;;;;10.40;7.97;;;;;;;3.06;100.00;98596.65;1752006;82;21027;-61
2021/12/16 18:13:40;;;;;;;11.08;8.90;;;;;;;3.08;100.00;98595.90;1724030;82;21461;-63
2021/12/16 18:16:07;;;;;;;10.30;9.20;;;;;;;3.10;100.00;98595.96;1752180;82;20896;-58
2021/12/16 18:18:35;;;;;;;11.48;8.58;;;;;;;3.11;100.00;98595.45;1752229;82;20931;-59
2021/12/16 18:21:02;;;;;;;10.50;8.53;;;;;;;3.12;100.00;98599.19;1752326;82;21097;-60
2021/12/16 18:23:47;;;;;;;13.70;9.53;;;;;;;3.13;100.00;98588.09;1761211;80;20913;-63
2021/12/16 18:26:14;;;;;;;14.90;9.35;;;;;;;3.14;100.00;98596.30;1760323;81;20917;-60
2021/12/16 18:28:45;;;;;;;16.20;9.85;;;;;;;3.16;100.00;98595.55;1760649;81;20890;-61
2021/12/16 18:31:17;;;;;;;31.52;9.45;;;;;;;3.20;100.00;98598.05;1760497;81;21018;-60
2021/12/16 18:33:51;;;;;;;11.73;10.03;;;;;;;3.20;100.00;98600.70;1760241;81;20960;-62
2021/12/16 18:36:22;;;;;;;12.55;9.25;;;;;;;3.21;100.00;98605.75;1760144;81;21453;-62
2021/12/16 18:38:53;;;;;;;12.05;8.73;;;;;;;3.20;100.00;98598.05;1760182;81;21285;-63
2021/12/16 18:41:25;;;;;;;13.20;9.80;;;;;;;3.23;100.00;98604.19;1760070;81;21456;-62
2021/12/16 18:43:52;;;;;;;19.95;11.30;;;;;;;3.20;100.00;98604.67;1760242;81;20875;-64
2021/12/16 18:46:19;;;;;;;11.28;9.30;;;;;;;3.21;100.00;98604.94;1760199;81;21088;-63
2021/12/16 18:48:58;;;;;;;48.13;10.72;;;;;;;3.22;100.00;98598.63;1760302;81;20882;-61
2021/12/16 18:51:29;;;;;;;16.10;10.60;;;;;;;3.23;100.00;98602.87;1759331;81;20937;-62
2021/12/16 18:56:39;;;;;;;11.85;9.65;;;;;;;3.25;100.00;98614.06;1760333;81;20902;-62
2021/12/16 18:59:08;;;;;;;12.55;9.10;;;;;;;3.25;100.00;98615.39;1760527;81;21115;-59
2021/12/16 19:01:40;;;;;;;14.25;10.32;;;;;;;3.25;100.00;98624.11;1760062;81;21472;-63
2021/12/16 19:04:07;;;;;;;13.03;10.78;;;;;;;3.27;100.00;98617.28;1760469;81;20874;-60
2021/12/16 19:06:38;;;;;;;56.53;12.28;;;;;;;3.25;100.00;98610.88;1760263;81;21428;-58
2021/12/16 19:09:09;;;;;;;109.50;17.37;;;;;;;3.26;100.00;98610.36;1760675;81;20948;-62
2021/12/16 19:11:44;;;;;;;27.77;10.90;;;;;;;3.27;100.00;98606.70;1760381;81;21164;-62
2021/12/16 19:14:07;;;;;;;20.65;10.88;;;;;;;3.26;100.00;98616.47;1759569;81;20989;-60
2021/12/16 19:16:33;;;;;;;19.82;11.93;;;;;;;3.28;100.00;98624.17;1760185;81;20878;-58
2021/12/16 19:19:02;;;;;;;12.85;10.43;;;;;;;3.29;100.00;98629.77;1760110;81;20881;-60
2021/12/16 19:21:30;;;;;;;15.55;11.43;;;;;;;3.31;100.00;98622.41;1760449;81;20882;-61
2021/12/16 19:23:56;;;;;;;17.37;12.73;;;;;;;3.31;100.00;98624.55;1765471;81;21741;-63
2021/12/16 19:26:24;;;;;;;15.40;12.13;;;;;;;3.30;100.00;98627.40;1765828;81;21372;-65
2021/12/16 19:28:50;;;;;;;15.05;11.80;;;;;;;3.32;100.00;98634.63;1765764;81;20877;-58